There are multiple Weather-warnings   Click here for more information


Meteo18 Weather Cam more information Meteo18 Weather Cam


warning for Thunderstorms more information blitzortung!


Rain radar more information rain snow radar


Visit our other weather sites:

Template documentation
and downloads

And another site



Weather Underground History page Text

Daily Summary for May 31, 2017 Units:  Metric    English   Both
« Previous Day
Next Day »
Daily Weekly Monthly Yearly Custom
  High: Low: Average:
Temperature: 23.1 °C 14.4 °C 18.7 °C
Dew Point: 16.9 °C 12.4 °C 14.6 °C
Humidity: 88 % 61 % 78 %
Wind Speed: 19.3 km/h 0.0 km/h 4.9 km/h
Wind Gust: 24.1 km/h - -
Wind:- - ESE
Pressure: 1022.9 hPa 1020.5 hPa -
Precipitation: 0.5 mm    
Historical Graphs
 
 
Tabular Data for May 31, 2017
Time Temperature Dew Point Pressure Wind Wind Speed Wind Gust Humidity Rainfall Rate (Hourly)
00:02 17.4 °C 13.9 °C 1021.6 hPa North 1.6 km/h 4.8 km/h 80 % 0.0 mm
00:12 17.3 °C 13.8 °C 1021.6 hPa NW 1.6 km/h 4.8 km/h 80 % 0.0 mm
00:17 17.3 °C 13.8 °C 1021.6 hPa NW 1.6 km/h 4.8 km/h 80 % 0.0 mm
00:22 17.3 °C 13.8 °C 1021.6 hPa North 3.2 km/h 4.8 km/h 80 % 0.0 mm
00:32 17.1 °C 13.6 °C 1021.6 hPa North 1.6 km/h 6.4 km/h 80 % 0.0 mm
00:42 17.0 °C 13.5 °C 1021.6 hPa North 3.2 km/h 6.4 km/h 80 % 0.0 mm
00:52 16.9 °C 13.4 °C 1021.6 hPa NNW 1.6 km/h 6.4 km/h 80 % 0.0 mm
00:57 16.9 °C 13.4 °C 1021.6 hPa NNE 4.8 km/h 6.4 km/h 80 % 0.0 mm
01:02 16.9 °C 13.4 °C 1021.6 hPa North 1.6 km/h 6.4 km/h 80 % 0.0 mm
01:07 16.8 °C 13.3 °C 1021.6 hPa Calm   6.4 km/h 80 % 0.0 mm
01:12 16.8 °C 13.3 °C 1021.6 hPa NNW 6.4 km/h 6.4 km/h 80 % 0.0 mm
01:17 16.7 °C 13.2 °C 1021.6 hPa NNE 6.4 km/h 8.0 km/h 80 % 0.0 mm
01:22 16.7 °C 13.2 °C 1021.6 hPa North 9.7 km/h 9.7 km/h 80 % 0.0 mm
01:32 16.6 °C 13.1 °C 1021.6 hPa NW 1.6 km/h 9.7 km/h 80 % 0.0 mm
01:42 16.4 °C 13.1 °C 1021.6 hPa NNW 1.6 km/h 9.7 km/h 81 % 0.0 mm
01:47 16.4 °C 13.1 °C 1021.6 hPa NNE 3.2 km/h 6.4 km/h 81 % 0.0 mm
01:52 16.4 °C 13.1 °C 1021.6 hPa Calm   8.0 km/h 81 % 0.0 mm
01:57 16.4 °C 13.1 °C 1021.6 hPa North 1.6 km/h 11.3 km/h 81 % 0.0 mm
02:02 16.5 °C 13.2 °C 1021.6 hPa Calm   11.3 km/h 81 % 0.0 mm
02:07 16.6 °C 13.3 °C 1021.6 hPa NW 1.6 km/h 8.0 km/h 81 % 0.0 mm
02:12 16.6 °C 13.3 °C 1021.6 hPa NNW 1.6 km/h 8.0 km/h 81 % 0.0 mm
02:22 16.6 °C 13.3 °C 1021.6 hPa North 3.2 km/h 4.8 km/h 81 % 0.0 mm
02:27 16.6 °C 13.3 °C 1021.6 hPa North 3.2 km/h 6.4 km/h 81 % 0.0 mm
02:32 16.6 °C 13.3 °C 1021.6 hPa NNW 1.6 km/h 6.4 km/h 81 % 0.0 mm
02:42 16.5 °C 13.2 °C 1021.9 hPa NNE 6.4 km/h 8.0 km/h 81 % 0.0 mm
02:47 16.4 °C 13.3 °C 1021.9 hPa NNE 4.8 km/h 12.9 km/h 82 % 0.0 mm
02:52 16.4 °C 13.3 °C 1021.9 hPa Calm   12.9 km/h 82 % 0.0 mm
02:57 16.3 °C 13.4 °C 1021.9 hPa ENE 1.6 km/h 9.7 km/h 83 % 0.0 mm
03:02 16.3 °C 13.4 °C 1021.9 hPa NE 3.2 km/h 11.3 km/h 83 % 0.0 mm
03:12 16.2 °C 13.3 °C 1021.9 hPa North 3.2 km/h 14.5 km/h 83 % 0.0 mm
03:17 16.2 °C 13.5 °C 1021.9 hPa North 4.8 km/h 14.5 km/h 84 % 0.0 mm
03:22 16.0 °C 13.3 °C 1021.9 hPa NE 1.6 km/h 14.5 km/h 84 % 0.0 mm
03:27 15.9 °C 13.4 °C 1021.9 hPa North 3.2 km/h 12.9 km/h 85 % 0.0 mm
03:32 15.8 °C 13.3 °C 1021.9 hPa NE 3.2 km/h 9.7 km/h 85 % 0.0 mm
03:42 15.7 °C 13.4 °C 1022.2 hPa North 6.4 km/h 9.7 km/h 86 % 0.0 mm
03:47 15.6 °C 13.3 °C 1022.2 hPa North 8.0 km/h 12.9 km/h 86 % 0.0 mm
03:52 15.6 °C 13.3 °C 1022.2 hPa NNW 1.6 km/h 12.9 km/h 86 % 0.0 mm
03:57 15.6 °C 13.3 °C 1022.2 hPa NNW 4.8 km/h 14.5 km/h 86 % 0.0 mm
04:02 15.5 °C 13.2 °C 1022.2 hPa North 6.4 km/h 14.5 km/h 86 % 0.0 mm
04:12 15.5 °C 13.2 °C 1022.2 hPa NW 4.8 km/h 14.5 km/h 86 % 0.0 mm
04:17 15.5 °C 13.2 °C 1022.2 hPa NNW 1.6 km/h 12.9 km/h 86 % 0.0 mm
04:22 15.5 °C 13.2 °C 1022.2 hPa NNE 1.6 km/h 9.7 km/h 86 % 0.0 mm
04:32 15.4 °C 13.2 °C 1022.2 hPa NNW 1.6 km/h 8.0 km/h 87 % 0.0 mm
04:42 15.4 °C 13.1 °C 1022.2 hPa NNE 3.2 km/h 9.7 km/h 86 % 0.0 mm
04:47 15.3 °C 13.1 °C 1022.2 hPa NNE 3.2 km/h 11.3 km/h 87 % 0.0 mm
04:52 15.3 °C 13.1 °C 1022.2 hPa NNW 3.2 km/h 11.3 km/h 87 % 0.0 mm
04:57 15.2 °C 13.0 °C 1022.2 hPa NE 4.8 km/h 11.3 km/h 87 % 0.0 mm
05:12 15.0 °C 12.9 °C 1022.2 hPa North 3.2 km/h 9.7 km/h 87 % 0.0 mm
05:17 14.8 °C 12.7 °C 1022.2 hPa NE 6.4 km/h 9.7 km/h 87 % 0.0 mm
05:22 14.8 °C 12.8 °C 1022.2 hPa NE 6.4 km/h 11.3 km/h 88 % 0.0 mm
05:32 14.7 °C 12.6 °C 1022.2 hPa NNW 4.8 km/h 12.9 km/h 87 % 0.0 mm
05:42 14.7 °C 12.6 °C 1022.2 hPa North 4.8 km/h 12.9 km/h 87 % 0.0 mm
05:47 14.6 °C 12.5 °C 1022.2 hPa NE 4.8 km/h 12.9 km/h 87 % 0.0 mm
05:52 14.6 °C 12.5 °C 1022.2 hPa North 6.4 km/h 12.9 km/h 87 % 0.0 mm
05:57 14.6 °C 12.5 °C 1022.2 hPa NNE 3.2 km/h 12.9 km/h 87 % 0.0 mm
06:02 14.6 °C 12.5 °C 1022.2 hPa East 4.8 km/h 14.5 km/h 87 % 0.0 mm
06:07 14.6 °C 12.5 °C 1022.2 hPa NNE 8.0 km/h 14.5 km/h 87 % 0.0 mm
06:17 14.5 °C 12.5 °C 1022.2 hPa NE 4.8 km/h 11.3 km/h 88 % 0.0 mm
06:22 14.4 °C 12.4 °C 1022.2 hPa NNW 4.8 km/h 11.3 km/h 88 % 0.0 mm
06:32 14.5 °C 12.5 °C 1022.2 hPa North 6.4 km/h 12.9 km/h 88 % 0.0 mm
06:37 14.6 °C 12.6 °C 1022.2 hPa NE 8.0 km/h 12.9 km/h 88 % 0.0 mm
06:42 14.7 °C 12.6 °C 1022.2 hPa Calm   14.5 km/h 87 % 0.0 mm
06:47 14.8 °C 12.7 °C 1022.2 hPa NE 8.0 km/h 14.5 km/h 87 % 0.0 mm
06:57 14.9 °C 12.6 °C 1022.2 hPa North 6.4 km/h 14.5 km/h 86 % 0.0 mm
07:02 15.0 °C 12.7 °C 1022.2 hPa North 4.8 km/h 14.5 km/h 86 % 0.0 mm
07:12 15.0 °C 12.7 °C 1022.6 hPa North 3.2 km/h 17.7 km/h 86 % 0.0 mm
07:22 14.9 °C 12.6 °C 1022.6 hPa North 9.7 km/h 14.5 km/h 86 % 0.0 mm
07:32 15.1 °C 12.8 °C 1022.6 hPa NNW 4.8 km/h 16.1 km/h 86 % 0.0 mm
07:37 15.2 °C 12.9 °C 1022.6 hPa NNE 6.4 km/h 16.1 km/h 86 % 0.0 mm
07:42 15.4 °C 13.1 °C 1022.6 hPa NE 16.1 km/h 16.1 km/h 86 % 0.0 mm
07:52 15.8 °C 13.1 °C 1022.6 hPa NNE 8.0 km/h 17.7 km/h 84 % 0.0 mm
07:57 16.0 °C 13.3 °C 1022.6 hPa NNE 9.7 km/h 17.7 km/h 84 % 0.0 mm
08:02 16.2 °C 13.3 °C 1022.9 hPa ENE 3.2 km/h 14.5 km/h 83 % 0.0 mm
08:12 16.6 °C 13.3 °C 1022.9 hPa ENE 3.2 km/h 14.5 km/h 81 % 0.0 mm
08:17 16.7 °C 13.2 °C 1022.9 hPa NNE 9.7 km/h 14.5 km/h 80 % 0.0 mm
08:22 16.8 °C 13.3 °C 1022.9 hPa North 4.8 km/h 16.1 km/h 80 % 0.0 mm
08:32 17.1 °C 13.4 °C 1022.9 hPa North 9.7 km/h 17.7 km/h 79 % 0.0 mm
08:42 17.3 °C 13.6 °C 1022.9 hPa NNE 12.9 km/h 17.7 km/h 79 % 0.0 mm
08:52 17.3 °C 13.4 °C 1022.9 hPa NE 6.4 km/h 17.7 km/h 78 % 0.0 mm
09:02 17.3 °C 13.6 °C 1022.9 hPa ENE 3.2 km/h 17.7 km/h 79 % 0.0 mm
09:12 17.5 °C 13.8 °C 1022.9 hPa NNW 3.2 km/h 16.1 km/h 79 % 0.0 mm
09:17 17.8 °C 13.9 °C 1022.9 hPa ENE 8.0 km/h 16.1 km/h 78 % 0.0 mm
09:22 17.9 °C 14.0 °C 1022.9 hPa NE 11.3 km/h 16.1 km/h 78 % 0.0 mm
09:32 17.6 °C 13.7 °C 1022.9 hPa NNE 9.7 km/h 19.3 km/h 78 % 0.0 mm
09:42 18.1 °C 14.4 °C 1022.9 hPa NNE 9.7 km/h 19.3 km/h 79 % 0.0 mm
09:47 18.2 °C 14.1 °C 1022.9 hPa NE 8.0 km/h 19.3 km/h 77 % 0.0 mm
09:52 18.4 °C 13.9 °C 1022.9 hPa NE 12.9 km/h 16.1 km/h 75 % 0.0 mm
10:02 18.6 °C 14.5 °C 1022.9 hPa NNE 12.9 km/h 20.9 km/h 77 % 0.0 mm
10:07 18.8 °C 14.7 °C 1022.9 hPa NE 3.2 km/h 20.9 km/h 77 % 0.0 mm
10:12 18.9 °C 14.6 °C 1022.9 hPa NW 9.7 km/h 14.5 km/h 76 % 0.0 mm
10:17 19.1 °C 14.6 °C 1022.9 hPa NE 4.8 km/h 14.5 km/h 75 % 0.0 mm
10:22 19.1 °C 14.6 °C 1022.9 hPa NE 11.3 km/h 17.7 km/h 75 % 0.0 mm
10:32 19.4 °C 14.4 °C 1022.9 hPa NE 9.7 km/h 17.7 km/h 73 % 0.0 mm
10:37 19.6 °C 14.8 °C 1022.9 hPa NNE 12.9 km/h 17.7 km/h 74 % 0.0 mm
10:42 19.5 °C 14.5 °C 1022.6 hPa ENE 9.7 km/h 20.9 km/h 73 % 0.0 mm
10:52 19.7 °C 14.5 °C 1022.9 hPa NNE 4.8 km/h 20.9 km/h 72 % 0.0 mm
11:02 19.9 °C 14.7 °C 1022.9 hPa NNE 19.3 km/h 19.3 km/h 72 % 0.0 mm
11:12 20.2 °C 15.0 °C 1022.9 hPa NE 6.4 km/h 24.1 km/h 72 % 0.0 mm
11:22 20.1 °C 14.9 °C 1022.9 hPa ENE 8.0 km/h 19.3 km/h 72 % 0.0 mm
11:32 20.2 °C 15.0 °C 1022.6 hPa NNE 16.1 km/h 19.3 km/h 72 % 0.0 mm
11:37 20.3 °C 15.5 °C 1022.9 hPa NW 3.2 km/h 19.3 km/h 74 % 0.0 mm
11:42 20.4 °C 15.2 °C 1022.9 hPa NE 11.3 km/h 19.3 km/h 72 % 0.0 mm
11:52 20.7 °C 15.9 °C 1022.9 hPa East 3.2 km/h 19.3 km/h 74 % 0.0 mm
12:02 21.0 °C 15.5 °C 1022.9 hPa NE 14.5 km/h 17.7 km/h 71 % 0.0 mm
12:12 21.0 °C 15.5 °C 1022.9 hPa NE 6.4 km/h 19.3 km/h 71 % 0.0 mm
12:17 21.2 °C 15.7 °C 1022.9 hPa NNW 6.4 km/h 19.3 km/h 71 % 0.0 mm
12:22 21.2 °C 15.5 °C 1022.9 hPa NE 8.0 km/h 19.3 km/h 70 % 0.0 mm
12:32 21.7 °C 15.8 °C 1022.9 hPa NNE 11.3 km/h 16.1 km/h 69 % 0.0 mm
12:37 21.7 °C 16.2 °C 1022.9 hPa NNE 11.3 km/h 16.1 km/h 71 % 0.0 mm
12:42 21.8 °C 16.1 °C 1022.9 hPa NNE 6.4 km/h 17.7 km/h 70 % 0.0 mm
12:47 21.8 °C 15.6 °C 1022.9 hPa NE 8.0 km/h 17.7 km/h 68 % 0.0 mm
12:52 21.4 °C 15.7 °C 1022.9 hPa NNE 9.7 km/h 17.7 km/h 70 % 0.0 mm
13:02 21.7 °C 15.8 °C 1022.6 hPa North 3.2 km/h 19.3 km/h 69 % 0.0 mm
13:12 21.6 °C 15.4 °C 1022.6 hPa NNE 11.3 km/h 17.7 km/h 68 % 0.0 mm
13:22 21.7 °C 15.5 °C 1022.2 hPa NNE 3.2 km/h 17.7 km/h 68 % 0.0 mm
13:32 21.9 °C 15.0 °C 1022.2 hPa NE 4.8 km/h 17.7 km/h 65 % 0.0 mm
13:37 22.1 °C 15.7 °C 1022.2 hPa NE 9.7 km/h 17.7 km/h 67 % 0.0 mm
13:42 22.3 °C 15.9 °C 1022.2 hPa NW 1.6 km/h 17.7 km/h 67 % 0.0 mm
13:52 22.1 °C 15.4 °C 1022.2 hPa NE 6.4 km/h 14.5 km/h 66 % 0.0 mm
14:02 22.4 °C 15.5 °C 1022.2 hPa North 12.9 km/h 20.9 km/h 65 % 0.0 mm
14:12 22.7 °C 15.5 °C 1022.2 hPa NNE 8.0 km/h 20.9 km/h 64 % 0.0 mm
14:22 22.4 °C 14.5 °C 1022.2 hPa NE 1.6 km/h 16.1 km/h 61 % 0.0 mm
14:32 22.6 °C 15.7 °C 1022.2 hPa ENE 9.7 km/h 14.5 km/h 65 % 0.0 mm
14:37 22.6 °C 15.2 °C 1022.2 hPa ENE 11.3 km/h 14.5 km/h 63 % 0.0 mm
14:42 22.4 °C 15.5 °C 1022.2 hPa NE 8.0 km/h 14.5 km/h 65 % 0.0 mm
14:47 22.2 °C 15.5 °C 1022.2 hPa NNE 12.9 km/h 14.5 km/h 66 % 0.0 mm
14:57 22.4 °C 15.5 °C 1022.2 hPa NE 3.2 km/h 12.9 km/h 65 % 0.0 mm
15:02 22.3 °C 15.6 °C 1022.2 hPa NNE 3.2 km/h 12.9 km/h 66 % 0.0 mm
15:07 22.3 °C 15.6 °C 1021.9 hPa NNE 1.6 km/h 14.5 km/h 66 % 0.0 mm
15:12 22.4 °C 16.0 °C 1021.9 hPa NE 6.4 km/h 14.5 km/h 67 % 0.0 mm
15:17 22.6 °C 15.7 °C 1021.9 hPa NNE 11.3 km/h 14.5 km/h 65 % 0.0 mm
15:22 22.4 °C 15.5 °C 1021.9 hPa North 8.0 km/h 16.1 km/h 65 % 0.0 mm
15:27 22.3 °C 15.6 °C 1021.9 hPa NE 8.0 km/h 16.1 km/h 66 % 0.0 mm
15:37 22.2 °C 15.8 °C 1021.9 hPa NE 6.4 km/h 17.7 km/h 67 % 0.0 mm
15:42 22.2 °C 15.3 °C 1021.9 hPa NE 14.5 km/h 17.7 km/h 65 % 0.0 mm
15:47 22.2 °C 15.1 °C 1021.6 hPa NE 8.0 km/h 17.7 km/h 64 % 0.0 mm
15:52 22.4 °C 15.0 °C 1021.6 hPa ENE 4.8 km/h 17.7 km/h 63 % 0.0 mm
15:57 22.4 °C 15.5 °C 1021.6 hPa ENE 4.8 km/h 17.7 km/h 65 % 0.0 mm
16:02 22.6 °C 15.7 °C 1021.6 hPa ESE 4.8 km/h 14.5 km/h 65 % 0.0 mm
16:12 22.7 °C 16.0 °C 1021.6 hPa North 3.2 km/h 12.9 km/h 66 % 0.0 mm
16:22 22.9 °C 16.0 °C 1021.6 hPa North 4.8 km/h 14.5 km/h 65 % 0.0 mm
16:27 23.0 °C 15.6 °C 1021.6 hPa NE 8.0 km/h 14.5 km/h 63 % 0.0 mm
16:32 22.9 °C 16.0 °C 1021.6 hPa NNE 6.4 km/h 14.5 km/h 65 % 0.0 mm
16:37 22.9 °C 15.7 °C 1021.6 hPa NNE 6.4 km/h 16.1 km/h 64 % 0.0 mm
16:42 23.1 °C 15.7 °C 1021.6 hPa Calm   16.1 km/h 63 % 0.0 mm
16:52 23.1 °C 15.4 °C 1021.2 hPa NNE 11.3 km/h 16.1 km/h 62 % 0.0 mm
16:57 23.0 °C 15.8 °C 1021.2 hPa ENE 8.0 km/h 14.5 km/h 64 % 0.0 mm
17:02 22.7 °C 15.5 °C 1021.2 hPa North 3.2 km/h 12.9 km/h 64 % 0.0 mm
17:12 22.4 °C 15.7 °C 1021.2 hPa NNE 6.4 km/h 12.9 km/h 66 % 0.0 mm
17:17 22.3 °C 15.6 °C 1021.2 hPa NE 6.4 km/h 14.5 km/h 66 % 0.0 mm
17:22 22.3 °C 15.4 °C 1021.6 hPa NNE 1.6 km/h 14.5 km/h 65 % 0.0 mm
17:32 22.3 °C 15.6 °C 1021.2 hPa ENE 3.2 km/h 9.7 km/h 66 % 0.0 mm
17:37 22.2 °C 15.8 °C 1021.2 hPa NE 6.4 km/h 9.7 km/h 67 % 0.0 mm
17:42 22.0 °C 15.8 °C 1021.2 hPa NE 4.8 km/h 9.7 km/h 68 % 0.0 mm
17:47 21.9 °C 15.7 °C 1021.2 hPa ENE 8.0 km/h 9.7 km/h 68 % 0.0 mm
17:52 21.7 °C 15.8 °C 1021.2 hPa NNE 6.4 km/h 11.3 km/h 69 % 0.0 mm
17:57 21.6 °C 15.7 °C 1021.2 hPa NE 4.8 km/h 12.9 km/h 69 % 0.0 mm
18:02 21.6 °C 15.4 °C 1020.9 hPa NE 3.2 km/h 12.9 km/h 68 % 0.0 mm
18:07 21.4 °C 15.5 °C 1020.9 hPa NNE 8.0 km/h 12.9 km/h 69 % 0.0 mm
18:17 20.9 °C 15.9 °C 1020.9 hPa NNE 9.7 km/h 12.9 km/h 73 % 0.0 mm
18:27 20.5 °C 15.9 °C 1020.9 hPa NE 6.4 km/h 14.5 km/h 75 % 0.0 mm
18:32 20.4 °C 16.2 °C 1020.9 hPa NE 6.4 km/h 14.5 km/h 77 % 0.0 mm
18:42 20.2 °C 16.4 °C 1020.9 hPa North 3.2 km/h 12.9 km/h 79 % 0.3 mm
18:52 20.1 °C 16.7 °C 1020.9 hPa Calm   9.7 km/h 81 % 0.3 mm
19:02 19.9 °C 16.7 °C 1020.9 hPa NNE 3.2 km/h 8.0 km/h 82 % 0.5 mm
19:12 19.9 °C 16.7 °C 1020.5 hPa North 1.6 km/h 6.4 km/h 82 % 0.5 mm
19:17 19.8 °C 16.6 °C 1020.9 hPa NE 4.8 km/h 6.4 km/h 82 % 0.5 mm
19:22 19.8 °C 16.8 °C 1020.9 hPa NNE 3.2 km/h 4.8 km/h 83 % 0.5 mm
19:32 19.7 °C 16.9 °C 1020.9 hPa NNE 1.6 km/h 6.4 km/h 84 % 0.5 mm
19:37 19.7 °C 16.7 °C 1020.9 hPa NNE 4.8 km/h 6.4 km/h 83 % 0.3 mm
19:42 19.7 °C 16.9 °C 1020.9 hPa NE 1.6 km/h 6.4 km/h 84 % 0.3 mm
19:52 19.6 °C 16.8 °C 1020.9 hPa Calm   6.4 km/h 84 % 0.0 mm
19:57 19.6 °C 16.6 °C 1020.9 hPa NNE 1.6 km/h 4.8 km/h 83 % 0.0 mm
20:02 19.7 °C 16.7 °C 1020.9 hPa North 1.6 km/h 4.8 km/h 83 % 0.0 mm
20:12 19.7 °C 16.7 °C 1020.9 hPa Calm   4.8 km/h 83 % 0.0 mm
20:17 19.8 °C 16.8 °C 1020.9 hPa North 1.6 km/h 4.8 km/h 83 % 0.0 mm
20:22 19.8 °C 16.8 °C 1020.9 hPa Calm   4.8 km/h 83 % 0.0 mm
20:32 19.8 °C 16.8 °C 1020.9 hPa North 3.2 km/h 3.2 km/h 83 % 0.0 mm
20:42 19.8 °C 16.6 °C 1021.2 hPa Calm   3.2 km/h 82 % 0.0 mm
20:47 19.8 °C 16.6 °C 1020.9 hPa Calm   4.8 km/h 82 % 0.0 mm
20:52 19.8 °C 16.6 °C 1021.2 hPa Calm   4.8 km/h 82 % 0.0 mm
20:57 19.8 °C 16.4 °C 1021.2 hPa Calm   1.6 km/h 81 % 0.0 mm
21:02 19.9 °C 16.5 °C 1021.2 hPa Calm   1.6 km/h 81 % 0.0 mm
21:12 20.1 °C 16.7 °C 1021.2 hPa Calm   1.6 km/h 81 % 0.0 mm
21:17 19.9 °C 16.3 °C 1021.2 hPa Calm   1.6 km/h 80 % 0.0 mm
21:22 19.8 °C 16.2 °C 1021.2 hPa Calm   1.6 km/h 80 % 0.0 mm
21:27 19.6 °C 16.2 °C 1021.2 hPa Calm     81 % 0.0 mm
21:32 19.4 °C 16.1 °C 1021.6 hPa Calm     81 % 0.0 mm
21:42 19.2 °C 15.9 °C 1021.6 hPa Calm     81 % 0.0 mm
21:47 19.1 °C 16.0 °C 1021.6 hPa Calm     82 % 0.0 mm
21:57 18.7 °C 15.9 °C 1021.6 hPa Calm     84 % 0.0 mm
22:02 18.4 °C 15.8 °C 1021.6 hPa Calm     85 % 0.0 mm
22:12 18.2 °C 15.6 °C 1021.9 hPa Calm     85 % 0.0 mm
22:22 18.2 °C 15.5 °C 1021.6 hPa Calm   1.6 km/h 84 % 0.0 mm
22:32 17.9 °C 15.3 °C 1021.6 hPa NE 3.2 km/h 6.4 km/h 85 % 0.0 mm
22:42 17.8 °C 15.2 °C 1021.9 hPa NE 1.6 km/h 6.4 km/h 85 % 0.0 mm
22:52 18.1 °C 15.2 °C 1021.9 hPa Calm   4.8 km/h 83 % 0.0 mm
22:57 17.9 °C 15.2 °C 1021.9 hPa Calm   4.8 km/h 84 % 0.0 mm
23:02 17.8 °C 15.1 °C 1021.9 hPa Calm   3.2 km/h 84 % 0.0 mm
23:12 17.7 °C 15.0 °C 1021.9 hPa Calm   3.2 km/h 84 % 0.0 mm
23:17 17.6 °C 14.9 °C 1021.9 hPa Calm   1.6 km/h 84 % 0.0 mm
23:22 17.7 °C 15.0 °C 1021.9 hPa NNE 1.6 km/h 1.6 km/h 84 % 0.0 mm
23:27 17.7 °C 15.0 °C 1021.9 hPa North 1.6 km/h 3.2 km/h 84 % 0.0 mm
23:32 17.6 °C 14.9 °C 1021.9 hPa North 1.6 km/h 3.2 km/h 84 % 0.0 mm
23:37 17.4 °C 14.9 °C 1021.9 hPa North 1.6 km/h 3.2 km/h 85 % 0.0 mm
23:42 17.3 °C 14.8 °C 1021.9 hPa Calm   3.2 km/h 85 % 0.0 mm
23:47 17.3 °C 14.8 °C 1021.9 hPa Calm   4.8 km/h 85 % 0.0 mm
23:52 17.3 °C 14.8 °C 1021.9 hPa Calm   4.8 km/h 85 % 0.0 mm
Meteo18
Compliments of Weather Underground - 4 mb

Script developed by  Jim McMurry - jmcmurry@mwt.net Adapted for the template by  Wim van der Kuil - Leuven-Template.eu

You find our weather info also at:

European Weather Network

Weather Underground

Equipment we use:

Weather-station
Davis Vue

Weather-program
Meteohub

Weather-server
Raspberry PI 2 B+

Provider
1 and 1

Davis Vue

Meteohub

Raspberry PI 2 B+

1 and 1